• Join FlightAware (Why Join?)
  • Login
  • US Flag 
10:53AM EDT


 

Airport Tracker/Info


-or-


 

Live Flight TrackerFlight Track Log ✈ SKW4757 ✈ 27-Jul-2013 ✈ KSFO - KLAX

Flight Track Log - Related Links

Times and Time Zones

All times are in EDT time to prevent confusion due to time zone crossing. See the SKW4757 flight status page for this flight to view local times or setup timezone preferences in your user account.

Time Position Orientation Groundspeed Altitude Reporting Facility
EDT Latitude Longitude Course Direction KTS MPH feet Rate Location/Type
06:23PM 37.6833 -122.3667 133° Southeast 207 238 2,300  Level Northern Cal TRACON
06:24PM 37.7167 -122.4000 322° Northwest 243 280 4,700 2,460 Climbing Northern Cal TRACON
06:25PM 37.3953 -122.2846 130° Southeast  Level FlightAware Approximate
06:25PM 37.7000 -122.4833 256° West 266 306 7,000  Level Northern Cal TRACON
06:26PM 37.3125 -122.1816 136° Southeast  Level FlightAware Approximate
06:26PM 37.6333 -122.4667 169° South 278 320 9,900  Level Northern Cal TRACON
06:27PM 37.2389 -122.0686 133° Southeast  Level FlightAware Approximate
06:27PM 37.5500 -122.4667 180° South 302 348 11,900  Level Northern Cal TRACON
06:28PM 37.1725 -121.9799 133° Southeast  Level FlightAware Approximate
06:28PM 37.4833 -122.4167 149° Southeast 314 361 14,200  Level Northern Cal TRACON
06:29PM 37.3961 -122.2919 131° Southeast 321 369 17,300 2,100 Climbing Oakland Center
06:30PM 37.3333 -122.2058 133° Southeast 333 383 19,500 2,040 Climbing Oakland Center
06:31PM 37.2689 -122.1181 133° Southeast 342 394 21,500 1,800 Climbing Oakland Center
06:32PM 37.2006 -122.0247 133° Southeast 360 414 23,200 1,680 Climbing Oakland Center
06:33PM 37.1300 -121.9294 133° Southeast 371 427 25,000 1,800 Climbing Oakland Center
06:34PM 37.0439 -121.8108 132° Southeast 383 441 26,900 1,620 Climbing Oakland Center
06:35PM 36.9664 -121.7136 135° Southeast 393 452 28,300 1,260 Climbing Oakland Center
06:36PM 36.8903 -121.6111 133° Southeast 402 463 29,600 1,260 Climbing Oakland Center
06:37PM 36.8089 -121.5000 132° Southeast 411 473 30,900 1,260 Climbing Oakland Center
06:38PM 36.7308 -121.3953 133° Southeast 414 476 32,200 1,020 Climbing Oakland Center
06:39PM 36.6517 -121.2892 133° Southeast 419 482 33,000 360 Climbing Oakland Center
06:40PM 36.5714 -121.1822 133° Southeast 421 484 33,000  Level Oakland Center
06:41PM 36.4919 -121.0761 133° Southeast 419 482 33,000  Level Oakland Center
06:42PM 36.4133 -120.9728 133° Southeast 414 476 33,000  Level Oakland Center
06:43PM 36.3344 -120.8692 133° Southeast 412 474 33,000  Level Oakland Center
06:44PM 36.2564 -120.7669 133° Southeast 409 471 33,000  Level Oakland Center
06:45PM 36.1775 -120.6631 133° Southeast 412 474 33,000  Level Oakland Center
06:46PM 36.0986 -120.5594 133° Southeast 414 476 33,000  Level Oakland Center
06:47PM 36.0186 -120.4561 134° Southeast 415 478 33,000  Level Oakland Center
06:48PM 35.9208 -120.3303 134° Southeast 420 483 33,000  Level Oakland Center
06:49PM 35.8397 -120.2261 134° Southeast 421 484 33,000  Level Oakland Center
06:50PM 35.7578 -120.1211 134° Southeast 423 487 33,000  Level Oakland Center
06:51PM 35.6772 -120.0156 133° Southeast 421 484 33,000  Level Oakland Center
06:53PM 35.5856 -119.9242 141° Southeast 416 479 33,000  Level Oakland Center
06:54PM 35.4719 -119.8267 145° Southeast 416 479 33,000  Level Los Angeles Center
06:55PM 35.3769 -119.7442 145° Southeast 416 479 33,000  Level Los Angeles Center
06:56PM 35.2811 -119.6625 145° Southeast 417 480 33,000  Level Los Angeles Center
06:57PM 35.1864 -119.5800 145° Southeast 417 480 33,000  Level Los Angeles Center
06:58PM 35.0908 -119.4986 145° Southeast 418 481 33,000  Level Los Angeles Center
06:59PM 34.9950 -119.4192 146° Southeast 416 479 33,000 -960 Level Los Angeles Center
07:00PM 34.8997 -119.3383 145° Southeast 417 480 31,100 -2,580 Descending Los Angeles Center
07:01PM 34.7864 -119.2403 145° Southeast 416 479 27,800 -2,940 Descending Los Angeles Center
07:02PM 34.6928 -119.1617 145° Southeast 411 473 25,100 -2,580 Descending Los Angeles Center
07:03PM 34.6017 -119.0867 146° Southeast 412 474 22,500 -2,640 Descending Los Angeles Center
07:04PM 34.5072 -119.0086 146° Southeast 411 473 19,800 -2,520 Descending Los Angeles Center
07:05PM 34.4161 -118.9333 146° Southeast 396 456 17,400 -2,280 Descending Los Angeles Center
07:06PM 34.3211 -118.8678 150° Southeast 384 442 15,100 -1,860 Descending Los Angeles Center
07:07PM 34.2047 -118.8269 164° South 357 411 13,600 -1,320 Descending Los Angeles Center
07:08PM 34.1242 -118.7953 162° South 308 354 12,400 -840 Descending Los Angeles Center
07:09PM 34.0472 -118.7531 156° South 301 346 11,900 -540 Descending Los Angeles Center
07:10PM 34.0303 -118.6661 103° East 269 310 11,400 -540 Descending Los Angeles Center
07:11PM 34.0214 -118.5694 96° East 270 311 10,900 -1,020 Descending Los Angeles Center
07:12PM 34.0128 -118.4800 97° East 268 308 9,400 -1,680 Descending Los Angeles Center
07:13PM 34.0256 -118.4047 78° East 257 296 7,500 -1,800 Descending Los Angeles Center
07:14PM 34.0414 -118.3203 77° East 258 297 5,800 -1,260 Descending Los Angeles Center
07:15PM 34.0583 -118.2197 78° East 256 295 5,000 -420 Descending Los Angeles Center
07:16PM 34.0403 -118.1425 106° East 254 292 5,000 -360 Level Los Angeles Center
07:18PM 33.9800 -118.1353 174° South 240 276 4,200 -840 Descending Los Angeles Center
07:19PM 33.9536 -118.2094 247° West 217 250 3,100 -1,080 Descending Los Angeles Center
07:20PM 33.9494 -118.2711 265° West 200 230 2,000 -960 Descending Los Angeles Center
07:21PM 33.9436 -118.3194 262° West 166 191 1,200 -840 Descending Los Angeles Center
07:22PM 33.9400 -118.3697 265° West 139 160 400 -480 Descending Los Angeles Center
07:23PM 33.9358 -118.4081 263° West 134 154 300 -120 Descending Los Angeles Center